createdAt,value
2022-11-27T00:25:24.465Z,26.53
2022-11-27T00:55:27.855Z,26.13
2022-11-27T01:25:32.163Z,25.43
2022-11-27T01:55:35.622Z,21.23
2022-11-27T02:25:38.723Z,23.43
2022-11-27T02:55:42.026Z,26.00
2022-11-27T03:25:45.836Z,24.30
2022-11-27T03:55:49.239Z,27.60
2022-11-27T04:25:52.751Z,29.75
2022-11-27T04:55:56.171Z,34.37
2022-11-27T05:25:59.652Z,24.55
2022-11-27T05:56:02.985Z,25.57
2022-11-27T06:26:07.273Z,27.57
2022-11-27T06:56:10.516Z,26.80
2022-11-27T07:26:14.831Z,29.20
2022-11-27T07:56:18.297Z,28.40
2022-11-27T08:26:21.864Z,27.67
2022-11-27T08:56:24.784Z,16.97
2022-11-27T09:26:29.584Z,15.30
2022-11-27T09:56:32.529Z,16.97
2022-11-27T10:26:36.721Z,16.97
2022-11-27T10:56:39.608Z,11.53
2022-11-27T11:26:43.581Z,15.80
2022-11-27T11:56:46.660Z,13.87
2022-11-27T12:26:51.061Z,12.23
2022-11-27T12:56:54.098Z,13.15
2022-11-27T13:26:57.589Z,14.03
2022-11-27T13:57:00.462Z,18.10
2022-11-27T14:27:04.062Z,22.13
2022-11-27T14:57:06.934Z,23.38
2022-11-27T15:27:11.039Z,26.05
2022-11-27T15:57:14.875Z,26.97
2022-11-27T16:27:18.987Z,30.37
2022-11-27T16:57:22.155Z,33.50
2022-11-27T17:27:26.374Z,30.60
2022-11-27T17:57:29.392Z,28.87
2022-11-27T18:27:32.674Z,23.60
2022-11-27T18:57:35.590Z,27.80
2022-11-27T19:27:40.104Z,23.85
2022-11-27T19:57:43.136Z,25.00
2022-11-27T20:27:46.820Z,27.57
2022-11-27T20:57:54.578Z,25.70
2022-11-27T21:27:58.555Z,30.10
2022-11-27T21:58:01.508Z,28.43
2022-11-27T22:28:04.980Z,24.90
2022-11-27T22:58:07.825Z,27.10
2022-11-27T23:28:11.539Z,29.57
2022-11-27T23:58:14.349Z,28.20
